createdAt,value
2019-01-21T00:01:54.095Z,-0.80
2019-01-21T00:04:24.588Z,-1.20
2019-01-21T00:06:54.356Z,-1.00
2019-01-21T00:09:24.961Z,-0.90
2019-01-21T00:11:54.640Z,-1.10
2019-01-21T00:14:24.455Z,-1.00
2019-01-21T00:16:54.153Z,-1.20
2019-01-21T00:19:24.136Z,-1.20
2019-01-21T00:21:53.868Z,-1.30
2019-01-21T00:24:23.760Z,-1.50
2019-01-21T00:26:53.711Z,-1.60
2019-01-21T00:29:23.424Z,-1.50
2019-01-21T00:31:55.152Z,-1.40
2019-01-21T00:34:25.055Z,-1.30
2019-01-21T00:36:54.876Z,-1.10
2019-01-21T00:39:24.697Z,-1.20
2019-01-21T00:41:54.503Z,-1.10
2019-01-21T00:44:24.592Z,-1.20
2019-01-21T00:46:54.308Z,-1.30
2019-01-21T00:49:24.040Z,-1.30
2019-01-21T00:51:53.882Z,-1.30
2019-01-21T00:54:23.607Z,-1.20
2019-01-21T00:56:53.403Z,-1.30
2019-01-21T00:59:23.077Z,-1.20
2019-01-21T01:01:52.895Z,-1.20
2019-01-21T01:04:22.635Z,-1.10
2019-01-21T01:06:52.352Z,-1.10
2019-01-21T01:09:22.119Z,-1.00
2019-01-21T01:11:51.932Z,-1.10
2019-01-21T01:14:24.578Z,-1.10
2019-01-21T01:16:54.220Z,-1.20
2019-01-21T01:19:24.527Z,-1.10
2019-01-21T01:21:54.159Z,-1.00
2019-01-21T01:24:23.968Z,-0.90
2019-01-21T01:26:53.747Z,-0.90
2019-01-21T01:29:23.394Z,-0.90
2019-01-21T01:31:54.368Z,-0.80
2019-01-21T01:34:24.438Z,-0.80
2019-01-21T01:36:54.286Z,-0.80
2019-01-21T01:39:23.999Z,-0.70
2019-01-21T01:41:53.743Z,-0.70
2019-01-21T01:44:23.409Z,-0.80
2019-01-21T01:46:53.222Z,-0.60
2019-01-21T01:49:23.355Z,-0.90
2019-01-21T01:51:53.207Z,-0.90
2019-01-21T01:54:23.044Z,-0.90
2019-01-21T01:56:52.832Z,-0.80
2019-01-21T01:59:22.887Z,-0.80
2019-01-21T02:01:52.788Z,-0.70
2019-01-21T02:04:22.655Z,-0.70
2019-01-21T02:06:52.507Z,-0.80
2019-01-21T02:09:34.493Z,-0.70
2019-01-21T02:12:04.419Z,-0.70
2019-01-21T02:14:34.060Z,-0.90
2019-01-21T02:17:03.591Z,-0.90
2019-01-21T02:19:34.579Z,-0.70
2019-01-21T02:22:04.713Z,-0.80
2019-01-21T02:24:39.503Z,-0.80
2019-01-21T02:27:21.315Z,-0.80
2019-01-21T02:30:33.320Z,-1.10
2019-01-21T02:33:47.706Z,-1.00
2019-01-21T02:36:47.890Z,-1.20
2019-01-21T02:39:48.547Z,-1.20
2019-01-21T02:42:29.813Z,-1.10
2019-01-21T02:45:31.891Z,-1.10
2019-01-21T02:48:23.249Z,-1.20
2019-01-21T02:51:38.533Z,-1.10
2019-01-21T02:54:27.196Z,-1.20
2019-01-21T02:57:30.501Z,-1.30
2019-01-21T03:00:42.004Z,-1.30
2019-01-21T03:22:27.102Z,-1.40
2019-01-21T03:25:27.944Z,-1.50
2019-01-21T03:28:46.569Z,-1.40
2019-01-21T03:31:50.316Z,-1.50
2019-01-21T03:35:12.999Z,-1.30
2019-01-21T03:38:21.171Z,-1.20
2019-01-21T03:41:18.674Z,-1.30
2019-01-21T03:44:04.435Z,-1.30
2019-01-21T03:46:59.465Z,-1.40
2019-01-21T03:50:09.909Z,-1.20
2019-01-21T03:53:18.089Z,-1.40
2019-01-21T03:55:49.107Z,-1.30
2019-01-21T03:58:55.155Z,-1.20
2019-01-21T04:02:09.362Z,-1.30
2019-01-21T04:05:13.217Z,-1.10
2019-01-21T04:08:26.803Z,-1.00
2019-01-21T04:11:46.652Z,-1.10
2019-01-21T04:15:14.669Z,-1.20
2019-01-21T04:18:14.481Z,-0.90
2019-01-21T04:21:29.278Z,-1.00
2019-01-21T04:24:22.007Z,-0.90
2019-01-21T04:27:23.685Z,-1.00
2019-01-21T04:30:23.507Z,-0.90
2019-01-21T04:33:10.137Z,-0.90
2019-01-21T04:36:31.118Z,-1.00
2019-01-21T04:39:35.961Z,-1.10
2019-01-21T04:42:24.524Z,-1.10
2019-01-21T04:45:03.840Z,-1.00
2019-01-21T04:48:19.947Z,-1.00
2019-01-21T04:51:32.528Z,-0.90
2019-01-21T04:54:52.818Z,-0.80
2019-01-21T04:57:58.266Z,-0.80
2019-01-21T05:01:02.730Z,-1.10
2019-01-21T05:04:13.696Z,-1.10
2019-01-21T05:07:16.014Z,-1.10
2019-01-21T05:10:32.784Z,-1.10
2019-01-21T05:13:23.116Z,-1.10
2019-01-21T05:16:16.548Z,-1.10
2019-01-21T05:19:10.375Z,-1.00
2019-01-21T05:22:18.154Z,-0.90
2019-01-21T05:25:11.978Z,-1.10
2019-01-21T05:28:14.576Z,-1.20
2019-01-21T05:31:28.617Z,-1.20
2019-01-21T05:34:20.886Z,-1.30
2019-01-21T05:37:23.048Z,-1.10
2019-01-21T05:40:25.318Z,-1.10
2019-01-21T05:43:31.681Z,-1.00
2019-01-21T05:46:38.675Z,-1.00
2019-01-21T05:49:58.724Z,-0.90
2019-01-21T05:53:03.974Z,-1.10
2019-01-21T05:56:23.861Z,-1.20
2019-01-21T05:59:39.469Z,-1.40
2019-01-21T06:02:42.460Z,-1.20
2019-01-21T06:05:42.869Z,-1.10
2019-01-21T06:08:58.914Z,-0.90
2019-01-21T06:11:50.458Z,-1.00
2019-01-21T06:15:21.918Z,-1.40
2019-01-21T06:18:16.080Z,-1.20
2019-01-21T06:21:16.653Z,-1.30
2019-01-21T06:24:19.881Z,-1.40
2019-01-21T06:27:22.027Z,-1.20
2019-01-21T06:30:20.131Z,-1.00
2019-01-21T06:33:45.413Z,-1.00
2019-01-21T06:36:40.793Z,-0.80
2019-01-21T06:40:06.149Z,-1.00
2019-01-21T06:43:04.791Z,-1.00
2019-01-21T06:46:15.247Z,-1.00
2019-01-21T06:49:27.594Z,-1.00
2019-01-21T06:52:34.078Z,-1.20
2019-01-21T06:55:30.573Z,-1.20
2019-01-21T06:58:54.623Z,-1.20
2019-01-21T07:02:23.806Z,-1.20
2019-01-21T07:05:40.658Z,-1.20
2019-01-21T07:08:47.803Z,-1.20
2019-01-21T07:11:58.468Z,-1.10
2019-01-21T07:15:10.033Z,-1.00
2019-01-21T07:18:14.006Z,-0.90
2019-01-21T07:20:58.087Z,-1.00
2019-01-21T07:23:47.244Z,-0.90
2019-01-21T07:26:58.305Z,-0.90
2019-01-21T07:30:13.858Z,-0.90
2019-01-21T07:33:20.038Z,-0.90
2019-01-21T07:36:17.220Z,-0.80
2019-01-21T07:39:18.494Z,-0.90
2019-01-21T07:42:34.141Z,-1.00
2019-01-21T07:45:24.367Z,-0.90
2019-01-21T07:48:35.151Z,-1.00
2019-01-21T07:51:31.154Z,-1.10
2019-01-21T07:54:46.664Z,-1.00
2019-01-21T07:58:24.358Z,-1.10
2019-01-21T08:01:15.220Z,-1.20
2019-01-21T08:04:20.696Z,-1.30
2019-01-21T08:07:32.909Z,-1.20
2019-01-21T08:10:42.465Z,-1.20
2019-01-21T08:13:45.835Z,-1.20
2019-01-21T08:16:50.783Z,-1.00
2019-01-21T08:19:36.583Z,-1.00
2019-01-21T08:22:36.861Z,-0.90
2019-01-21T08:25:53.702Z,-0.90
2019-01-21T08:29:00.551Z,-0.80
2019-01-21T08:31:58.246Z,-0.90
2019-01-21T08:35:09.727Z,-1.00
2019-01-21T08:38:22.031Z,-0.90
2019-01-21T08:41:33.214Z,-1.10
2019-01-21T08:44:33.264Z,-0.90
2019-01-21T08:47:28.152Z,-0.90
2019-01-21T08:50:47.847Z,-1.00
2019-01-21T08:53:27.559Z,-0.90
2019-01-21T08:56:26.420Z,-0.90
2019-01-21T08:59:27.644Z,-0.80
2019-01-21T09:02:24.551Z,-0.70
2019-01-21T09:05:46.916Z,-0.90
2019-01-21T09:08:59.395Z,-0.70
2019-01-21T09:12:13.034Z,-0.70
2019-01-21T09:15:09.328Z,-0.70
2019-01-21T09:18:25.996Z,-0.70
2019-01-21T09:21:27.574Z,-0.60
2019-01-21T09:24:46.038Z,-0.60
2019-01-21T09:27:38.829Z,-0.50
2019-01-21T09:31:01.162Z,-0.30
2019-01-21T09:34:21.944Z,-0.40
2019-01-21T09:37:42.403Z,-0.40
2019-01-21T09:40:55.248Z,-0.50
2019-01-21T09:44:14.643Z,-0.40
2019-01-21T09:46:49.190Z,-0.60
2019-01-21T09:49:17.549Z,-0.50
2019-01-21T09:52:19.603Z,-0.40
2019-01-21T09:54:49.896Z,-0.30
2019-01-21T09:57:26.557Z,-0.40
2019-01-21T10:00:01.368Z,-0.20
2019-01-21T10:02:42.228Z,0.00
2019-01-21T10:05:14.418Z,-0.30
2019-01-21T10:08:22.424Z,-0.10
2019-01-21T10:11:29.580Z,-0.10
2019-01-21T10:14:35.098Z,0.10
2019-01-21T10:17:29.976Z,0.20
2019-01-21T10:20:29.003Z,0.30
2019-01-21T10:23:55.664Z,0.20
2019-01-21T10:27:21.311Z,0.30
2019-01-21T10:30:06.685Z,0.30
2019-01-21T10:33:12.070Z,0.40
2019-01-21T10:36:23.475Z,0.50
2019-01-21T10:39:45.492Z,0.30
2019-01-21T10:42:40.950Z,0.40
2019-01-21T10:45:29.479Z,0.40
2019-01-21T10:48:28.916Z,0.50
2019-01-21T10:51:48.787Z,0.70
2019-01-21T10:55:01.511Z,0.70
2019-01-21T10:57:56.176Z,0.40
2019-01-21T11:01:11.464Z,0.50
2019-01-21T11:04:08.450Z,0.60
2019-01-21T11:07:07.420Z,0.70
2019-01-21T11:10:12.606Z,0.50
2019-01-21T11:13:35.080Z,0.30
2019-01-21T11:16:19.295Z,0.40
2019-01-21T11:19:34.715Z,0.60
2019-01-21T11:22:42.243Z,0.70
2019-01-21T11:25:52.970Z,0.80
2019-01-21T11:29:22.617Z,1.00
2019-01-21T11:32:31.133Z,1.10
2019-01-21T11:35:16.663Z,1.10
2019-01-21T11:38:16.133Z,1.10
2019-01-21T11:41:20.486Z,1.10
2019-01-21T11:44:16.092Z,1.00
2019-01-21T11:47:20.794Z,1.20
2019-01-21T11:50:43.970Z,1.20
2019-01-21T11:53:47.018Z,1.40
2019-01-21T11:57:03.637Z,1.40
2019-01-21T12:00:07.609Z,1.40
2019-01-21T12:02:50.479Z,1.40
2019-01-21T12:05:44.517Z,1.50
2019-01-21T12:08:51.449Z,1.30
2019-01-21T12:11:52.299Z,1.20
2019-01-21T12:14:57.005Z,1.20
2019-01-21T12:17:49.063Z,1.30
2019-01-21T12:20:49.595Z,1.20
2019-01-21T12:23:58.728Z,1.40
2019-01-21T12:27:13.297Z,1.40
2019-01-21T12:30:19.971Z,1.60
2019-01-21T12:33:08.371Z,1.50
2019-01-21T12:35:53.588Z,1.70
2019-01-21T12:38:53.612Z,1.80
2019-01-21T12:42:01.222Z,1.80
2019-01-21T12:44:57.231Z,1.70
2019-01-21T12:47:43.090Z,1.70
2019-01-21T12:50:42.416Z,1.60
2019-01-21T12:54:04.978Z,1.40
2019-01-21T12:57:12.170Z,1.40
2019-01-21T13:00:23.904Z,1.30
2019-01-21T13:03:20.803Z,1.50
2019-01-21T13:06:30.083Z,1.40
2019-01-21T13:09:11.051Z,1.50
2019-01-21T13:12:00.120Z,1.50
2019-01-21T13:14:56.350Z,1.50
2019-01-21T13:17:51.821Z,1.60
2019-01-21T13:20:43.511Z,1.60
2019-01-21T13:23:41.222Z,1.40
2019-01-21T13:26:52.332Z,1.40
2019-01-21T13:29:45.396Z,1.40
2019-01-21T13:32:54.729Z,1.30
2019-01-21T13:35:47.394Z,1.40
2019-01-21T13:39:20.351Z,1.40
2019-01-21T13:42:07.418Z,1.50
2019-01-21T13:45:09.727Z,1.40
2019-01-21T13:48:03.671Z,1.40
2019-01-21T13:50:58.146Z,1.30
2019-01-21T13:54:21.226Z,1.20
2019-01-21T13:57:43.659Z,1.30
2019-01-21T14:01:15.277Z,1.10
2019-01-21T14:04:32.584Z,1.10
2019-01-21T14:07:58.201Z,1.30
2019-01-21T14:11:16.154Z,1.20
2019-01-21T14:14:19.203Z,1.20
2019-01-21T14:17:37.286Z,1.20
2019-01-21T14:20:20.596Z,1.00
2019-01-21T14:23:11.933Z,1.10
2019-01-21T14:26:24.229Z,1.00
2019-01-21T14:29:23.855Z,1.10
2019-01-21T14:32:22.032Z,1.10
2019-01-21T14:35:38.776Z,1.10
2019-01-21T14:38:44.488Z,1.20
2019-01-21T14:41:42.270Z,0.90
2019-01-21T14:44:54.305Z,1.00
2019-01-21T14:47:55.732Z,1.10
2019-01-21T14:50:42.294Z,1.00
2019-01-21T14:53:57.530Z,0.80
2019-01-21T14:56:43.604Z,0.80
2019-01-21T14:59:40.546Z,0.90
2019-01-21T15:02:34.520Z,1.00
2019-01-21T15:05:30.139Z,1.10
2019-01-21T15:08:33.083Z,0.80
2019-01-21T15:11:50.425Z,0.90
2019-01-21T15:14:44.203Z,0.90
2019-01-21T15:18:12.677Z,1.00
2019-01-21T15:20:59.422Z,1.00
2019-01-21T15:23:51.189Z,0.80
2019-01-21T15:27:05.033Z,1.00
2019-01-21T15:30:18.105Z,1.10
2019-01-21T15:33:40.984Z,1.00
2019-01-21T15:36:29.166Z,1.00
2019-01-21T15:39:19.606Z,1.00
2019-01-21T15:42:32.926Z,1.00
2019-01-21T15:45:41.926Z,1.00
2019-01-21T15:48:31.160Z,1.00
2019-01-21T15:51:17.962Z,1.00
2019-01-21T15:54:20.949Z,1.10
2019-01-21T15:57:03.740Z,1.10
2019-01-21T16:00:22.701Z,1.10
2019-01-21T16:03:02.378Z,1.00
2019-01-21T16:06:24.016Z,0.90
2019-01-21T16:09:09.177Z,1.00
2019-01-21T16:11:53.611Z,1.10
2019-01-21T16:14:36.629Z,1.10
2019-01-21T16:17:56.678Z,1.00
2019-01-21T16:20:36.544Z,0.90
2019-01-21T16:23:36.316Z,1.00
2019-01-21T16:26:24.709Z,0.90
2019-01-21T16:29:35.730Z,1.00
2019-01-21T16:32:49.883Z,1.00
2019-01-21T16:35:48.515Z,1.00
2019-01-21T16:38:40.055Z,1.00
2019-01-21T16:41:50.768Z,1.00
2019-01-21T16:44:20.370Z,0.90
2019-01-21T16:46:50.910Z,0.90
2019-01-21T16:49:21.015Z,0.80
2019-01-21T16:51:50.837Z,0.90
2019-01-21T16:54:21.496Z,1.00
2019-01-21T16:56:51.172Z,1.10
2019-01-21T16:59:21.247Z,1.00
2019-01-21T17:01:50.829Z,1.00
2019-01-21T17:04:20.520Z,1.00
2019-01-21T17:06:50.222Z,0.90
2019-01-21T17:09:20.043Z,1.00
2019-01-21T17:11:49.986Z,1.00
2019-01-21T17:14:19.670Z,1.00
2019-01-21T17:16:49.210Z,1.10
2019-01-21T17:19:18.831Z,1.10
2019-01-21T17:21:48.586Z,1.20
2019-01-21T17:24:18.291Z,1.20
2019-01-21T17:26:48.207Z,1.20
2019-01-21T17:29:18.041Z,1.20
2019-01-21T17:31:47.633Z,1.20
2019-01-21T17:34:17.607Z,1.20
2019-01-21T17:36:47.285Z,1.30
2019-01-21T17:39:17.144Z,1.20
2019-01-21T17:41:47.245Z,1.20
2019-01-21T17:44:17.066Z,1.30
2019-01-21T17:46:46.693Z,1.20
2019-01-21T17:49:16.529Z,1.20
2019-01-21T17:51:46.107Z,1.20
2019-01-21T17:54:15.933Z,1.10
2019-01-21T17:56:45.795Z,1.20
2019-01-21T17:59:15.363Z,1.00
2019-01-21T18:01:45.060Z,1.00
2019-01-21T18:04:15.396Z,1.00
2019-01-21T18:06:45.117Z,1.00
2019-01-21T18:09:15.051Z,1.00
2019-01-21T18:11:44.770Z,1.00
2019-01-21T18:14:14.944Z,1.00
2019-01-21T18:16:45.007Z,1.10
2019-01-21T18:19:14.892Z,1.10
2019-01-21T18:21:44.642Z,1.10
2019-01-21T18:24:14.203Z,1.10
2019-01-21T18:26:43.870Z,1.10
2019-01-21T18:29:14.021Z,1.20
2019-01-21T18:31:43.590Z,1.10
2019-01-21T18:34:13.481Z,1.00
2019-01-21T18:36:43.221Z,1.00
2019-01-21T18:39:13.572Z,1.00
2019-01-21T18:41:44.935Z,1.00
2019-01-21T18:44:14.680Z,1.10
2019-01-21T18:46:44.547Z,1.10
2019-01-21T18:49:14.587Z,1.10
2019-01-21T18:51:46.772Z,1.20
2019-01-21T18:54:16.224Z,1.10
2019-01-21T18:56:46.041Z,1.10
2019-01-21T18:59:15.675Z,1.10
2019-01-21T19:01:45.686Z,1.10
2019-01-21T19:04:15.970Z,1.20
2019-01-21T19:06:46.035Z,1.20
2019-01-21T19:09:16.307Z,1.20
2019-01-21T19:11:46.191Z,1.10
2019-01-21T19:14:16.482Z,1.10
2019-01-21T19:16:46.229Z,1.10
2019-01-21T19:19:15.870Z,1.00
2019-01-21T19:21:53.384Z,1.00
2019-01-21T19:24:18.301Z,1.00
2019-01-21T19:26:48.665Z,1.00
2019-01-21T19:29:20.743Z,1.00
2019-01-21T19:31:51.581Z,1.00
2019-01-21T19:34:21.509Z,1.00
2019-01-21T19:36:51.332Z,0.90
2019-01-21T19:39:22.279Z,0.90
2019-01-21T19:41:52.189Z,1.00
2019-01-21T19:44:22.162Z,1.00
2019-01-21T19:46:52.257Z,1.00
2019-01-21T19:49:22.849Z,1.00
2019-01-21T19:51:52.958Z,0.90
2019-01-21T19:54:23.897Z,0.90
2019-01-21T19:56:53.572Z,0.90
2019-01-21T19:59:24.061Z,0.90
2019-01-21T20:01:53.683Z,0.90
2019-01-21T20:04:24.058Z,0.90
2019-01-21T20:06:54.269Z,0.80
2019-01-21T20:09:24.728Z,0.80
2019-01-21T20:11:55.515Z,0.90
2019-01-21T20:14:26.172Z,0.90
2019-01-21T20:16:55.998Z,0.90
2019-01-21T20:19:25.699Z,0.90
2019-01-21T20:21:55.457Z,0.90
2019-01-21T20:24:25.868Z,0.90
2019-01-21T20:26:55.589Z,0.70
2019-01-21T20:29:25.158Z,0.50
2019-01-21T20:31:54.964Z,0.50
2019-01-21T20:34:24.681Z,0.50
2019-01-21T20:36:54.423Z,0.50
2019-01-21T20:39:24.926Z,0.50
2019-01-21T20:41:54.731Z,0.50
2019-01-21T20:44:24.594Z,0.70
2019-01-21T20:46:54.192Z,0.60
2019-01-21T20:49:24.022Z,0.60
2019-01-21T20:51:53.980Z,0.60
2019-01-21T20:54:27.754Z,0.70
2019-01-21T20:56:57.871Z,0.60
2019-01-21T20:59:28.264Z,0.60
2019-01-21T21:01:58.079Z,0.70
2019-01-21T21:04:27.885Z,0.80
2019-01-21T21:06:57.597Z,0.50
2019-01-21T21:09:28.128Z,0.70
2019-01-21T21:11:57.801Z,0.70
2019-01-21T21:14:28.048Z,0.70
2019-01-21T21:16:57.801Z,0.70
2019-01-21T21:19:27.680Z,0.70
2019-01-21T21:21:57.816Z,0.70
2019-01-21T21:24:28.237Z,0.70
2019-01-21T21:26:57.931Z,0.70
2019-01-21T21:29:27.540Z,0.80
2019-01-21T21:31:59.760Z,0.80
2019-01-21T21:34:30.104Z,0.80
2019-01-21T21:36:59.969Z,0.80
2019-01-21T21:39:30.383Z,0.90
2019-01-21T21:42:00.807Z,0.80
2019-01-21T21:44:30.662Z,0.70
2019-01-21T21:47:00.429Z,0.70
2019-01-21T21:49:30.254Z,0.60
2019-01-21T21:52:00.197Z,0.60
2019-01-21T21:54:30.687Z,0.60
2019-01-21T21:57:00.707Z,0.50
2019-01-21T21:59:30.382Z,0.60
2019-01-21T22:02:00.334Z,0.60
2019-01-21T22:04:31.061Z,0.70
2019-01-21T22:07:01.744Z,0.70
2019-01-21T22:09:33.069Z,0.60
2019-01-21T22:12:02.858Z,0.60
2019-01-21T22:14:33.272Z,0.60
2019-01-21T22:17:03.300Z,0.60
2019-01-21T22:19:33.080Z,0.60
2019-01-21T22:22:02.817Z,0.60
2019-01-21T22:24:33.213Z,0.60
2019-01-21T22:27:02.925Z,0.50
2019-01-21T22:29:32.781Z,0.40
2019-01-21T22:32:02.466Z,0.40
2019-01-21T22:34:32.399Z,0.50
2019-01-21T22:37:02.079Z,0.50
2019-01-21T22:39:32.005Z,0.40
2019-01-21T22:42:01.638Z,0.50
2019-01-21T22:44:33.700Z,0.50
2019-01-21T22:47:03.304Z,0.50
2019-01-21T22:49:33.011Z,0.70
2019-01-21T22:52:02.885Z,0.60
2019-01-21T22:54:32.720Z,0.50
2019-01-21T22:57:02.767Z,0.50
2019-01-21T22:59:32.966Z,0.40
2019-01-21T23:02:02.724Z,0.40
2019-01-21T23:04:32.980Z,0.30
2019-01-21T23:07:02.813Z,0.30
2019-01-21T23:09:33.219Z,0.30
2019-01-21T23:12:02.958Z,0.30
2019-01-21T23:14:33.055Z,0.30
2019-01-21T23:17:02.758Z,0.30
2019-01-21T23:19:32.497Z,0.20
2019-01-21T23:22:02.172Z,0.20
2019-01-21T23:24:34.577Z,0.20
2019-01-21T23:27:04.273Z,0.10
2019-01-21T23:29:34.393Z,0.10
2019-01-21T23:32:03.983Z,0.10
2019-01-21T23:34:34.036Z,0.00
2019-01-21T23:37:03.915Z,0.00
2019-01-21T23:39:33.739Z,0.10
2019-01-21T23:42:03.937Z,0.10
2019-01-21T23:44:33.747Z,0.10
2019-01-21T23:47:03.995Z,0.10
2019-01-21T23:49:34.256Z,0.20
2019-01-21T23:52:03.873Z,0.20
2019-01-21T23:54:35.822Z,0.20
2019-01-21T23:57:05.497Z,0.20
2019-01-21T23:59:35.161Z,0.20
